sensor_id;sensor_type;location;lat;lon;timestamp;P1;durP1;ratioP1;P2;durP2;ratioP2
25153;SDS011;47555;51.038;6.280;2022-10-23T00:02:03;9.23;;;3.65;;
25153;SDS011;47555;51.038;6.280;2022-10-23T00:04:29;8.65;;;3.85;;
25153;SDS011;47555;51.038;6.280;2022-10-23T00:06:55;7.05;;;3.70;;
25153;SDS011;47555;51.038;6.280;2022-10-23T00:09:21;5.15;;;3.60;;
25153;SDS011;47555;51.038;6.280;2022-10-23T00:11:48;6.45;;;3.30;;
25153;SDS011;47555;51.038;6.280;2022-10-23T00:14:15;11.32;;;4.05;;
25153;SDS011;47555;51.038;6.280;2022-10-23T00:16:43;6.63;;;3.30;;
25153;SDS011;47555;51.038;6.280;2022-10-23T00:19:09;10.07;;;4.32;;
25153;SDS011;47555;51.038;6.280;2022-10-23T00:21:35;6.85;;;3.75;;
25153;SDS011;47555;51.038;6.280;2022-10-23T00:24:01;7.43;;;3.20;;
25153;SDS011;47555;51.038;6.280;2022-10-23T00:26:26;5.68;;;3.58;;
25153;SDS011;47555;51.038;6.280;2022-10-23T00:28:52;9.88;;;4.13;;
25153;SDS011;47555;51.038;6.280;2022-10-23T00:31:19;6.25;;;3.75;;
25153;SDS011;47555;51.038;6.280;2022-10-23T00:33:46;5.90;;;3.60;;
25153;SDS011;47555;51.038;6.280;2022-10-23T00:36:13;6.80;;;3.40;;
25153;SDS011;47555;51.038;6.280;2022-10-23T00:38:40;8.65;;;3.83;;
25153;SDS011;47555;51.038;6.280;2022-10-23T00:41:06;7.90;;;3.60;;
25153;SDS011;47555;51.038;6.280;2022-10-23T00:43:33;7.18;;;3.50;;
25153;SDS011;47555;51.038;6.280;2022-10-23T00:46:18;5.72;;;3.38;;
25153;SDS011;47555;51.038;6.280;2022-10-23T00:48:43;6.15;;;3.90;;
25153;SDS011;47555;51.038;6.280;2022-10-23T00:51:09;7.97;;;3.53;;
25153;SDS011;47555;51.038;6.280;2022-10-23T00:53:34;8.10;;;3.85;;
25153;SDS011;47555;51.038;6.280;2022-10-23T00:56:01;9.35;;;3.53;;
25153;SDS011;47555;51.038;6.280;2022-10-23T00:58:27;5.13;;;3.17;;
25153;SDS011;47555;51.038;6.280;2022-10-23T01:00:54;8.57;;;3.58;;
25153;SDS011;47555;51.038;6.280;2022-10-23T01:03:21;5.72;;;3.38;;
25153;SDS011;47555;51.038;6.280;2022-10-23T01:06:02;6.38;;;3.03;;
25153;SDS011;47555;51.038;6.280;2022-10-23T01:08:56;5.70;;;3.22;;
25153;SDS011;47555;51.038;6.280;2022-10-23T01:11:36;4.20;;;2.92;;
25153;SDS011;47555;51.038;6.280;2022-10-23T01:16:45;6.20;;;3.75;;
25153;SDS011;47555;51.038;6.280;2022-10-23T01:19:21;7.10;;;3.42;;
25153;SDS011;47555;51.038;6.280;2022-10-23T01:24:52;11.80;;;4.30;;
25153;SDS011;47555;51.038;6.280;2022-10-23T01:34:56;10.25;;;3.80;;
25153;SDS011;47555;51.038;6.280;2022-10-23T01:37:38;7.00;;;3.80;;
25153;SDS011;47555;51.038;6.280;2022-10-23T01:40:09;8.05;;;3.75;;
25153;SDS011;47555;51.038;6.280;2022-10-23T01:42:43;7.20;;;3.90;;
25153;SDS011;47555;51.038;6.280;2022-10-23T01:45:18;7.85;;;3.33;;
25153;SDS011;47555;51.038;6.280;2022-10-23T01:47:49;7.65;;;3.58;;
25153;SDS011;47555;51.038;6.280;2022-10-23T01:50:20;8.77;;;4.55;;
25153;SDS011;47555;51.038;6.280;2022-10-23T01:52:48;8.90;;;3.72;;
25153;SDS011;47555;51.038;6.280;2022-10-23T01:55:14;8.93;;;4.13;;
25153;SDS011;47555;51.038;6.280;2022-10-23T01:57:41;11.38;;;4.18;;
25153;SDS011;47555;51.038;6.280;2022-10-23T02:00:13;7.22;;;3.97;;
25153;SDS011;47555;51.038;6.280;2022-10-23T02:02:41;9.57;;;4.13;;
25153;SDS011;47555;51.038;6.280;2022-10-23T02:05:22;12.38;;;4.07;;
25153;SDS011;47555;51.038;6.280;2022-10-23T02:07:50;9.20;;;3.90;;
25153;SDS011;47555;51.038;6.280;2022-10-23T02:10:17;9.18;;;4.35;;
25153;SDS011;47555;51.038;6.280;2022-10-23T02:15:25;6.53;;;4.25;;
25153;SDS011;47555;51.038;6.280;2022-10-23T02:20:45;8.98;;;4.47;;
25153;SDS011;47555;51.038;6.280;2022-10-23T02:23:21;9.38;;;4.32;;
25153;SDS011;47555;51.038;6.280;2022-10-23T02:25:59;6.15;;;3.55;;
25153;SDS011;47555;51.038;6.280;2022-10-23T02:28:32;7.53;;;3.97;;
25153;SDS011;47555;51.038;6.280;2022-10-23T02:31:04;9.50;;;4.22;;
25153;SDS011;47555;51.038;6.280;2022-10-23T02:33:33;9.18;;;4.25;;
25153;SDS011;47555;51.038;6.280;2022-10-23T02:36:00;8.30;;;4.18;;
25153;SDS011;47555;51.038;6.280;2022-10-23T02:38:31;6.05;;;4.20;;
25153;SDS011;47555;51.038;6.280;2022-10-23T02:41:11;7.43;;;3.65;;
25153;SDS011;47555;51.038;6.280;2022-10-23T02:43:56;9.00;;;4.50;;
25153;SDS011;47555;51.038;6.280;2022-10-23T02:49:36;9.32;;;3.92;;
25153;SDS011;47555;51.038;6.280;2022-10-23T02:52:13;10.32;;;3.75;;
25153;SDS011;47555;51.038;6.280;2022-10-23T02:54:54;10.43;;;4.22;;
25153;SDS011;47555;51.038;6.280;2022-10-23T03:00:28;8.35;;;3.70;;
25153;SDS011;47555;51.038;6.280;2022-10-23T03:03:08;5.55;;;3.65;;
25153;SDS011;47555;51.038;6.280;2022-10-23T03:05:39;9.13;;;4.15;;
25153;SDS011;47555;51.038;6.280;2022-10-23T03:08:09;9.40;;;3.85;;
25153;SDS011;47555;51.038;6.280;2022-10-23T03:10:36;11.93;;;4.05;;
25153;SDS011;47555;51.038;6.280;2022-10-23T03:13:02;9.52;;;4.05;;
25153;SDS011;47555;51.038;6.280;2022-10-23T03:15:28;13.30;;;4.35;;
25153;SDS011;47555;51.038;6.280;2022-10-23T03:17:53;8.93;;;3.70;;
25153;SDS011;47555;51.038;6.280;2022-10-23T03:20:19;9.88;;;4.10;;
25153;SDS011;47555;51.038;6.280;2022-10-23T03:22:44;6.63;;;3.85;;
25153;SDS011;47555;51.038;6.280;2022-10-23T03:25:10;8.30;;;4.22;;
25153;SDS011;47555;51.038;6.280;2022-10-23T03:27:36;9.57;;;4.07;;
25153;SDS011;47555;51.038;6.280;2022-10-23T03:30:02;9.65;;;3.35;;
25153;SDS011;47555;51.038;6.280;2022-10-23T03:32:28;7.28;;;3.88;;
25153;SDS011;47555;51.038;6.280;2022-10-23T03:34:54;7.80;;;3.80;;
25153;SDS011;47555;51.038;6.280;2022-10-23T03:37:20;5.57;;;3.15;;
25153;SDS011;47555;51.038;6.280;2022-10-23T03:39:45;6.32;;;3.63;;
25153;SDS011;47555;51.038;6.280;2022-10-23T03:42:11;7.72;;;3.53;;
25153;SDS011;47555;51.038;6.280;2022-10-23T03:44:36;10.90;;;3.97;;
25153;SDS011;47555;51.038;6.280;2022-10-23T03:47:02;7.05;;;3.53;;
25153;SDS011;47555;51.038;6.280;2022-10-23T03:49:28;10.15;;;3.72;;
25153;SDS011;47555;51.038;6.280;2022-10-23T03:51:53;6.55;;;3.33;;
25153;SDS011;47555;51.038;6.280;2022-10-23T03:57:07;6.18;;;3.13;;
25153;SDS011;47555;51.038;6.280;2022-10-23T03:59:32;9.43;;;3.10;;
25153;SDS011;47555;51.038;6.280;2022-10-23T04:01:58;7.47;;;3.45;;
25153;SDS011;47555;51.038;6.280;2022-10-23T04:04:24;6.25;;;3.78;;
25153;SDS011;47555;51.038;6.280;2022-10-23T04:06:49;9.80;;;3.60;;
25153;SDS011;47555;51.038;6.280;2022-10-23T04:09:15;7.95;;;4.05;;
25153;SDS011;47555;51.038;6.280;2022-10-23T04:11:40;7.20;;;3.20;;
25153;SDS011;47555;51.038;6.280;2022-10-23T04:14:06;9.10;;;3.47;;
25153;SDS011;47555;51.038;6.280;2022-10-23T04:16:32;9.20;;;3.20;;
25153;SDS011;47555;51.038;6.280;2022-10-23T04:18:57;5.57;;;3.70;;
25153;SDS011;47555;51.038;6.280;2022-10-23T04:21:26;9.05;;;3.63;;
25153;SDS011;47555;51.038;6.280;2022-10-23T04:23:54;9.00;;;4.00;;
25153;SDS011;47555;51.038;6.280;2022-10-23T04:26:20;7.72;;;3.50;;
25153;SDS011;47555;51.038;6.280;2022-10-23T04:28:46;5.85;;;3.55;;
25153;SDS011;47555;51.038;6.280;2022-10-23T04:31:14;9.35;;;3.22;;
25153;SDS011;47555;51.038;6.280;2022-10-23T04:33:40;6.80;;;3.33;;
25153;SDS011;47555;51.038;6.280;2022-10-23T04:36:05;6.35;;;3.35;;
25153;SDS011;47555;51.038;6.280;2022-10-23T04:38:31;6.78;;;3.15;;
25153;SDS011;47555;51.038;6.280;2022-10-23T04:40:57;4.20;;;3.00;;
25153;SDS011;47555;51.038;6.280;2022-10-23T04:43:22;6.80;;;3.17;;
25153;SDS011;47555;51.038;6.280;2022-10-23T04:45:48;6.57;;;3.00;;
25153;SDS011;47555;51.038;6.280;2022-10-23T04:48:14;8.63;;;3.10;;
25153;SDS011;47555;51.038;6.280;2022-10-23T04:50:41;5.65;;;3.30;;
25153;SDS011;47555;51.038;6.280;2022-10-23T04:53:08;5.20;;;3.00;;
25153;SDS011;47555;51.038;6.280;2022-10-23T04:55:36;5.95;;;3.03;;
25153;SDS011;47555;51.038;6.280;2022-10-23T04:58:02;5.80;;;3.20;;
25153;SDS011;47555;51.038;6.280;2022-10-23T05:00:27;5.38;;;3.15;;
25153;SDS011;47555;51.038;6.280;2022-10-23T05:02:54;11.98;;;3.85;;
25153;SDS011;47555;51.038;6.280;2022-10-23T05:05:20;9.45;;;4.95;;
25153;SDS011;47555;51.038;6.280;2022-10-23T05:07:46;5.35;;;3.08;;
25153;SDS011;47555;51.038;6.280;2022-10-23T05:10:13;4.32;;;3.00;;
25153;SDS011;47555;51.038;6.280;2022-10-23T05:12:41;7.00;;;2.95;;
25153;SDS011;47555;51.038;6.280;2022-10-23T05:15:07;5.70;;;3.50;;
25153;SDS011;47555;51.038;6.280;2022-10-23T05:17:33;10.95;;;3.20;;
25153;SDS011;47555;51.038;6.280;2022-10-23T05:20:01;6.75;;;3.17;;
25153;SDS011;47555;51.038;6.280;2022-10-23T05:22:31;7.03;;;3.53;;
25153;SDS011;47555;51.038;6.280;2022-10-23T05:25:04;5.35;;;3.50;;
25153;SDS011;47555;51.038;6.280;2022-10-23T05:27:32;5.15;;;3.00;;
25153;SDS011;47555;51.038;6.280;2022-10-23T05:29:57;6.65;;;3.25;;
25153;SDS011;47555;51.038;6.280;2022-10-23T05:32:23;5.50;;;3.30;;
25153;SDS011;47555;51.038;6.280;2022-10-23T05:34:51;7.13;;;3.28;;
25153;SDS011;47555;51.038;6.280;2022-10-23T05:37:17;8.88;;;3.55;;
25153;SDS011;47555;51.038;6.280;2022-10-23T05:39:43;8.95;;;3.58;;
25153;SDS011;47555;51.038;6.280;2022-10-23T05:42:08;5.90;;;3.53;;
25153;SDS011;47555;51.038;6.280;2022-10-23T05:44:34;6.78;;;3.17;;
25153;SDS011;47555;51.038;6.280;2022-10-23T05:47:05;5.05;;;3.33;;
25153;SDS011;47555;51.038;6.280;2022-10-23T05:49:38;4.93;;;3.20;;
25153;SDS011;47555;51.038;6.280;2022-10-23T05:52:04;5.32;;;3.38;;
25153;SDS011;47555;51.038;6.280;2022-10-23T05:54:29;6.43;;;3.28;;
25153;SDS011;47555;51.038;6.280;2022-10-23T05:56:55;5.53;;;3.03;;
25153;SDS011;47555;51.038;6.280;2022-10-23T05:59:20;6.25;;;3.40;;
25153;SDS011;47555;51.038;6.280;2022-10-23T06:01:46;4.82;;;3.22;;
25153;SDS011;47555;51.038;6.280;2022-10-23T06:04:12;10.25;;;3.20;;
25153;SDS011;47555;51.038;6.280;2022-10-23T06:06:38;8.75;;;3.35;;
25153;SDS011;47555;51.038;6.280;2022-10-23T06:09:03;6.53;;;3.08;;
25153;SDS011;47555;51.038;6.280;2022-10-23T06:11:29;5.75;;;3.10;;
25153;SDS011;47555;51.038;6.280;2022-10-23T06:13:55;4.82;;;3.20;;
25153;SDS011;47555;51.038;6.280;2022-10-23T06:16:21;4.13;;;3.10;;
25153;SDS011;47555;51.038;6.280;2022-10-23T06:18:51;6.28;;;3.22;;
25153;SDS011;47555;51.038;6.280;2022-10-23T06:21:17;4.15;;;2.92;;
25153;SDS011;47555;51.038;6.280;2022-10-23T06:23:43;5.07;;;3.45;;
25153;SDS011;47555;51.038;6.280;2022-10-23T06:26:10;4.50;;;2.92;;
25153;SDS011;47555;51.038;6.280;2022-10-23T06:28:38;6.65;;;2.95;;
25153;SDS011;47555;51.038;6.280;2022-10-23T06:31:07;7.45;;;3.70;;
25153;SDS011;47555;51.038;6.280;2022-10-23T06:33:34;6.28;;;2.97;;
25153;SDS011;47555;51.038;6.280;2022-10-23T06:36:00;8.07;;;3.85;;
25153;SDS011;47555;51.038;6.280;2022-10-23T06:38:28;7.00;;;3.30;;
25153;SDS011;47555;51.038;6.280;2022-10-23T06:41:00;7.60;;;3.20;;
25153;SDS011;47555;51.038;6.280;2022-10-23T06:43:26;5.65;;;2.90;;
25153;SDS011;47555;51.038;6.280;2022-10-23T06:45:52;7.03;;;3.10;;
25153;SDS011;47555;51.038;6.280;2022-10-23T06:48:17;5.82;;;3.08;;
25153;SDS011;47555;51.038;6.280;2022-10-23T06:50:44;3.80;;;2.78;;
25153;SDS011;47555;51.038;6.280;2022-10-23T06:53:10;4.78;;;3.20;;
25153;SDS011;47555;51.038;6.280;2022-10-23T06:55:37;6.57;;;3.00;;
25153;SDS011;47555;51.038;6.280;2022-10-23T06:58:06;6.38;;;3.00;;
25153;SDS011;47555;51.038;6.280;2022-10-23T07:00:36;5.20;;;2.97;;
25153;SDS011;47555;51.038;6.280;2022-10-23T07:03:02;7.35;;;3.10;;
25153;SDS011;47555;51.038;6.280;2022-10-23T07:05:28;4.88;;;2.95;;
25153;SDS011;47555;51.038;6.280;2022-10-23T07:07:54;5.75;;;3.20;;
25153;SDS011;47555;51.038;6.280;2022-10-23T07:10:19;5.82;;;3.28;;
25153;SDS011;47555;51.038;6.280;2022-10-23T07:12:45;9.88;;;3.70;;
25153;SDS011;47555;51.038;6.280;2022-10-23T07:15:12;4.25;;;3.30;;
25153;SDS011;47555;51.038;6.280;2022-10-23T07:17:39;8.23;;;3.20;;
25153;SDS011;47555;51.038;6.280;2022-10-23T07:20:04;6.45;;;3.17;;
25153;SDS011;47555;51.038;6.280;2022-10-23T07:22:30;6.75;;;4.30;;
25153;SDS011;47555;51.038;6.280;2022-10-23T07:24:55;8.02;;;3.25;;
25153;SDS011;47555;51.038;6.280;2022-10-23T07:27:21;6.68;;;2.95;;
25153;SDS011;47555;51.038;6.280;2022-10-23T07:29:50;3.92;;;2.78;;
25153;SDS011;47555;51.038;6.280;2022-10-23T07:32:17;7.00;;;3.42;;
25153;SDS011;47555;51.038;6.280;2022-10-23T07:34:43;5.60;;;3.05;;
25153;SDS011;47555;51.038;6.280;2022-10-23T07:37:08;8.70;;;3.10;;
25153;SDS011;47555;51.038;6.280;2022-10-23T07:39:34;6.85;;;3.40;;
25153;SDS011;47555;51.038;6.280;2022-10-23T07:42:00;6.25;;;3.10;;
25153;SDS011;47555;51.038;6.280;2022-10-23T07:44:25;10.55;;;4.13;;
25153;SDS011;47555;51.038;6.280;2022-10-23T07:46:51;5.35;;;3.25;;
25153;SDS011;47555;51.038;6.280;2022-10-23T07:49:16;8.02;;;2.90;;
25153;SDS011;47555;51.038;6.280;2022-10-23T07:51:42;5.28;;;2.78;;
25153;SDS011;47555;51.038;6.280;2022-10-23T07:54:09;5.63;;;3.35;;
25153;SDS011;47555;51.038;6.280;2022-10-23T07:56:36;7.93;;;3.50;;
25153;SDS011;47555;51.038;6.280;2022-10-23T07:59:02;5.35;;;2.97;;
25153;SDS011;47555;51.038;6.280;2022-10-23T08:01:29;5.35;;;3.13;;
25153;SDS011;47555;51.038;6.280;2022-10-23T08:03:56;5.20;;;2.60;;
25153;SDS011;47555;51.038;6.280;2022-10-23T08:06:22;6.18;;;2.58;;
25153;SDS011;47555;51.038;6.280;2022-10-23T08:08:48;6.45;;;2.88;;
25153;SDS011;47555;51.038;6.280;2022-10-23T08:11:14;5.97;;;2.45;;
25153;SDS011;47555;51.038;6.280;2022-10-23T08:13:41;8.57;;;3.10;;
25153;SDS011;47555;51.038;6.280;2022-10-23T08:16:07;4.55;;;2.75;;
25153;SDS011;47555;51.038;6.280;2022-10-23T08:18:33;5.68;;;2.60;;
25153;SDS011;47555;51.038;6.280;2022-10-23T08:20:59;6.03;;;2.83;;
25153;SDS011;47555;51.038;6.280;2022-10-23T08:23:27;5.80;;;2.53;;
25153;SDS011;47555;51.038;6.280;2022-10-23T08:25:56;6.47;;;2.60;;
25153;SDS011;47555;51.038;6.280;2022-10-23T08:28:24;5.75;;;2.53;;
25153;SDS011;47555;51.038;6.280;2022-10-23T08:30:50;5.30;;;2.65;;
25153;SDS011;47555;51.038;6.280;2022-10-23T08:33:16;3.33;;;2.60;;
25153;SDS011;47555;51.038;6.280;2022-10-23T08:35:41;7.55;;;2.50;;
25153;SDS011;47555;51.038;6.280;2022-10-23T08:38:07;4.43;;;2.65;;
25153;SDS011;47555;51.038;6.280;2022-10-23T08:40:33;4.70;;;2.30;;
25153;SDS011;47555;51.038;6.280;2022-10-23T08:45:29;4.72;;;2.42;;
25153;SDS011;47555;51.038;6.280;2022-10-23T08:48:25;5.07;;;2.05;;
25153;SDS011;47555;51.038;6.280;2022-10-23T08:50:57;3.35;;;2.20;;
25153;SDS011;47555;51.038;6.280;2022-10-23T08:53:33;5.22;;;2.30;;
25153;SDS011;47555;51.038;6.280;2022-10-23T08:56:11;4.28;;;2.22;;
25153;SDS011;47555;51.038;6.280;2022-10-23T08:58:53;2.20;;;1.87;;
25153;SDS011;47555;51.038;6.280;2022-10-23T09:01:29;3.22;;;1.98;;
25153;SDS011;47555;51.038;6.280;2022-10-23T09:04:05;4.35;;;2.17;;
25153;SDS011;47555;51.038;6.280;2022-10-23T09:06:39;2.90;;;2.03;;
25153;SDS011;47555;51.038;6.280;2022-10-23T09:11:57;5.13;;;2.45;;
25153;SDS011;47555;51.038;6.280;2022-10-23T09:19:40;4.82;;;1.90;;
25153;SDS011;47555;51.038;6.280;2022-10-23T09:22:09;4.07;;;2.30;;
25153;SDS011;47555;51.038;6.280;2022-10-23T09:24:35;3.25;;;2.10;;
25153;SDS011;47555;51.038;6.280;2022-10-23T09:27:01;2.75;;;1.63;;
25153;SDS011;47555;51.038;6.280;2022-10-23T09:29:28;8.10;;;2.80;;
25153;SDS011;47555;51.038;6.280;2022-10-23T09:32:00;4.32;;;2.17;;
25153;SDS011;47555;51.038;6.280;2022-10-23T09:34:31;4.70;;;2.38;;
25153;SDS011;47555;51.038;6.280;2022-10-23T09:36:59;4.15;;;2.13;;
25153;SDS011;47555;51.038;6.280;2022-10-23T09:39:41;11.57;;;3.42;;
25153;SDS011;47555;51.038;6.280;2022-10-23T09:42:19;3.60;;;2.33;;
25153;SDS011;47555;51.038;6.280;2022-10-23T09:44:48;7.07;;;2.10;;
25153;SDS011;47555;51.038;6.280;2022-10-23T09:47:16;5.75;;;2.13;;
25153;SDS011;47555;51.038;6.280;2022-10-23T09:49:48;4.68;;;2.40;;
25153;SDS011;47555;51.038;6.280;2022-10-23T09:52:27;5.30;;;2.47;;
25153;SDS011;47555;51.038;6.280;2022-10-23T09:55:01;3.60;;;2.10;;
25153;SDS011;47555;51.038;6.280;2022-10-23T09:57:42;4.53;;;2.30;;
25153;SDS011;47555;51.038;6.280;2022-10-23T10:02:52;3.85;;;2.03;;
25153;SDS011;47555;51.038;6.280;2022-10-23T10:05:27;6.47;;;1.90;;
25153;SDS011;47555;51.038;6.280;2022-10-23T10:08:12;5.25;;;2.20;;
25153;SDS011;47555;51.038;6.280;2022-10-23T10:10:43;6.50;;;2.00;;
25153;SDS011;47555;51.038;6.280;2022-10-23T10:15:58;5.53;;;2.35;;
25153;SDS011;47555;51.038;6.280;2022-10-23T10:18:35;5.53;;;1.98;;
25153;SDS011;47555;51.038;6.280;2022-10-23T10:26:51;8.02;;;2.38;;
25153;SDS011;47555;51.038;6.280;2022-10-23T10:32:34;2.53;;;2.30;;
25153;SDS011;47555;51.038;6.280;2022-10-23T10:43:59;3.35;;;1.90;;
25153;SDS011;47555;51.038;6.280;2022-10-23T10:46:30;2.95;;;2.15;;
25153;SDS011;47555;51.038;6.280;2022-10-23T10:49:09;7.35;;;2.17;;
25153;SDS011;47555;51.038;6.280;2022-10-23T10:51:54;5.57;;;1.98;;
25153;SDS011;47555;51.038;6.280;2022-10-23T10:54:51;2.55;;;1.90;;
25153;SDS011;47555;51.038;6.280;2022-10-23T10:57:39;4.22;;;2.00;;
25153;SDS011;47555;51.038;6.280;2022-10-23T11:00:14;2.70;;;2.00;;
25153;SDS011;47555;51.038;6.280;2022-10-23T11:02:52;3.15;;;2.00;;
25153;SDS011;47555;51.038;6.280;2022-10-23T11:05:42;4.57;;;2.23;;
25153;SDS011;47555;51.038;6.280;2022-10-23T11:08:17;4.22;;;2.40;;
25153;SDS011;47555;51.038;6.280;2022-10-23T11:10:50;6.32;;;2.50;;
25153;SDS011;47555;51.038;6.280;2022-10-23T11:13:31;3.05;;;2.10;;
25153;SDS011;47555;51.038;6.280;2022-10-23T11:16:12;3.30;;;2.15;;
25153;SDS011;47555;51.038;6.280;2022-10-23T11:18:45;14.15;;;2.63;;
25153;SDS011;47555;51.038;6.280;2022-10-23T11:21:36;4.57;;;2.03;;
25153;SDS011;47555;51.038;6.280;2022-10-23T11:24:12;4.75;;;2.00;;
25153;SDS011;47555;51.038;6.280;2022-10-23T11:32:04;4.43;;;1.98;;
25153;SDS011;47555;51.038;6.280;2022-10-23T11:34:57;4.30;;;1.80;;
25153;SDS011;47555;51.038;6.280;2022-10-23T11:37:38;7.07;;;2.28;;
25153;SDS011;47555;51.038;6.280;2022-10-23T11:42:33;3.90;;;1.90;;
25153;SDS011;47555;51.038;6.280;2022-10-23T11:48:03;5.70;;;2.13;;
25153;SDS011;47555;51.038;6.280;2022-10-23T11:50:36;6.60;;;2.25;;
25153;SDS011;47555;51.038;6.280;2022-10-23T12:06:40;5.97;;;2.03;;
25153;SDS011;47555;51.038;6.280;2022-10-23T12:14:38;5.25;;;2.00;;
25153;SDS011;47555;51.038;6.280;2022-10-23T12:19:48;5.03;;;2.08;;
25153;SDS011;47555;51.038;6.280;2022-10-23T12:22:14;4.15;;;1.92;;
25153;SDS011;47555;51.038;6.280;2022-10-23T12:30:00;4.70;;;1.85;;
25153;SDS011;47555;51.038;6.280;2022-10-23T12:38:12;8.20;;;1.88;;
25153;SDS011;47555;51.038;6.280;2022-10-23T12:40:45;3.10;;;1.83;;
25153;SDS011;47555;51.038;6.280;2022-10-23T12:45:50;4.65;;;2.13;;
25153;SDS011;47555;51.038;6.280;2022-10-23T12:48:18;3.05;;;1.85;;
25153;SDS011;47555;51.038;6.280;2022-10-23T12:50:47;5.93;;;1.75;;
25153;SDS011;47555;51.038;6.280;2022-10-23T12:53:17;12.70;;;2.25;;
25153;SDS011;47555;51.038;6.280;2022-10-23T12:55:52;4.38;;;1.58;;
25153;SDS011;47555;51.038;6.280;2022-10-23T12:58:29;3.47;;;1.98;;
25153;SDS011;47555;51.038;6.280;2022-10-23T13:00:58;4.72;;;1.90;;
25153;SDS011;47555;51.038;6.280;2022-10-23T13:03:26;5.55;;;1.75;;
25153;SDS011;47555;51.038;6.280;2022-10-23T13:05:54;4.28;;;1.95;;
25153;SDS011;47555;51.038;6.280;2022-10-23T13:08:40;3.33;;;1.80;;
25153;SDS011;47555;51.038;6.280;2022-10-23T13:11:11;5.35;;;2.25;;
25153;SDS011;47555;51.038;6.280;2022-10-23T13:13:40;5.37;;;1.80;;
25153;SDS011;47555;51.038;6.280;2022-10-23T13:16:13;5.55;;;1.83;;
25153;SDS011;47555;51.038;6.280;2022-10-23T13:18:40;5.22;;;2.17;;
25153;SDS011;47555;51.038;6.280;2022-10-23T13:21:09;7.13;;;2.33;;
25153;SDS011;47555;51.038;6.280;2022-10-23T13:23:40;6.80;;;1.90;;
25153;SDS011;47555;51.038;6.280;2022-10-23T13:28:56;10.25;;;2.28;;
25153;SDS011;47555;51.038;6.280;2022-10-23T13:31:23;2.28;;;1.67;;
25153;SDS011;47555;51.038;6.280;2022-10-23T13:34:03;4.05;;;2.13;;
25153;SDS011;47555;51.038;6.280;2022-10-23T13:36:34;2.97;;;1.60;;
25153;SDS011;47555;51.038;6.280;2022-10-23T13:41:39;4.22;;;2.13;;
25153;SDS011;47555;51.038;6.280;2022-10-23T13:44:04;4.10;;;2.05;;
25153;SDS011;47555;51.038;6.280;2022-10-23T13:46:31;2.83;;;2.08;;
25153;SDS011;47555;51.038;6.280;2022-10-23T13:48:57;5.30;;;2.20;;
25153;SDS011;47555;51.038;6.280;2022-10-23T13:51:23;6.43;;;2.35;;
25153;SDS011;47555;51.038;6.280;2022-10-23T13:53:51;4.70;;;2.33;;
25153;SDS011;47555;51.038;6.280;2022-10-23T13:56:18;4.30;;;2.28;;
25153;SDS011;47555;51.038;6.280;2022-10-23T13:58:45;5.93;;;2.42;;
25153;SDS011;47555;51.038;6.280;2022-10-23T14:01:27;4.65;;;2.10;;
25153;SDS011;47555;51.038;6.280;2022-10-23T14:03:54;3.05;;;1.90;;
25153;SDS011;47555;51.038;6.280;2022-10-23T14:06:21;4.20;;;2.55;;
25153;SDS011;47555;51.038;6.280;2022-10-23T14:08:46;8.23;;;2.63;;
25153;SDS011;47555;51.038;6.280;2022-10-23T14:11:13;3.97;;;1.95;;
25153;SDS011;47555;51.038;6.280;2022-10-23T14:13:40;3.83;;;2.13;;
25153;SDS011;47555;51.038;6.280;2022-10-23T14:16:06;4.40;;;2.47;;
25153;SDS011;47555;51.038;6.280;2022-10-23T14:18:33;3.53;;;2.35;;
25153;SDS011;47555;51.038;6.280;2022-10-23T14:20:59;4.35;;;2.20;;
25153;SDS011;47555;51.038;6.280;2022-10-23T14:23:26;4.07;;;2.30;;
25153;SDS011;47555;51.038;6.280;2022-10-23T14:25:52;4.18;;;2.28;;
25153;SDS011;47555;51.038;6.280;2022-10-23T14:28:17;4.75;;;2.13;;
25153;SDS011;47555;51.038;6.280;2022-10-23T14:30:43;4.65;;;2.38;;
25153;SDS011;47555;51.038;6.280;2022-10-23T14:33:09;5.65;;;2.30;;
25153;SDS011;47555;51.038;6.280;2022-10-23T14:35:38;4.53;;;2.08;;
25153;SDS011;47555;51.038;6.280;2022-10-23T14:38:04;2.85;;;2.08;;
25153;SDS011;47555;51.038;6.280;2022-10-23T14:40:30;5.05;;;1.88;;
25153;SDS011;47555;51.038;6.280;2022-10-23T14:42:55;4.75;;;2.45;;
25153;SDS011;47555;51.038;6.280;2022-10-23T14:45:21;4.20;;;2.65;;
25153;SDS011;47555;51.038;6.280;2022-10-23T14:47:47;7.15;;;2.47;;
25153;SDS011;47555;51.038;6.280;2022-10-23T14:50:13;5.50;;;2.30;;
25153;SDS011;47555;51.038;6.280;2022-10-23T14:52:39;5.47;;;2.40;;
25153;SDS011;47555;51.038;6.280;2022-10-23T14:55:05;3.13;;;2.40;;
25153;SDS011;47555;51.038;6.280;2022-10-23T14:57:30;5.40;;;2.63;;
25153;SDS011;47555;51.038;6.280;2022-10-23T14:59:56;2.80;;;2.45;;
25153;SDS011;47555;51.038;6.280;2022-10-23T15:02:21;4.38;;;2.80;;
25153;SDS011;47555;51.038;6.280;2022-10-23T15:04:50;6.88;;;2.80;;
25153;SDS011;47555;51.038;6.280;2022-10-23T15:07:15;5.30;;;3.22;;
25153;SDS011;47555;51.038;6.280;2022-10-23T15:09:41;8.38;;;3.47;;
25153;SDS011;47555;51.038;6.280;2022-10-23T15:12:06;5.88;;;2.47;;
25153;SDS011;47555;51.038;6.280;2022-10-23T15:14:32;4.35;;;2.70;;
25153;SDS011;47555;51.038;6.280;2022-10-23T15:16:58;4.60;;;2.30;;
25153;SDS011;47555;51.038;6.280;2022-10-23T15:19:24;4.15;;;2.53;;
25153;SDS011;47555;51.038;6.280;2022-10-23T15:21:49;7.38;;;2.90;;
25153;SDS011;47555;51.038;6.280;2022-10-23T15:24:16;4.00;;;2.58;;
25153;SDS011;47555;51.038;6.280;2022-10-23T15:26:42;5.72;;;2.45;;
25153;SDS011;47555;51.038;6.280;2022-10-23T15:29:08;3.95;;;2.67;;
25153;SDS011;47555;51.038;6.280;2022-10-23T15:34:05;4.45;;;2.47;;
25153;SDS011;47555;51.038;6.280;2022-10-23T15:36:31;6.18;;;2.70;;
25153;SDS011;47555;51.038;6.280;2022-10-23T15:38:57;6.30;;;2.65;;
25153;SDS011;47555;51.038;6.280;2022-10-23T15:41:26;7.03;;;3.00;;
25153;SDS011;47555;51.038;6.280;2022-10-23T15:43:54;5.95;;;3.30;;
25153;SDS011;47555;51.038;6.280;2022-10-23T15:46:19;4.55;;;2.92;;
25153;SDS011;47555;51.038;6.280;2022-10-23T15:48:45;8.27;;;3.55;;
25153;SDS011;47555;51.038;6.280;2022-10-23T15:51:10;7.63;;;3.25;;
25153;SDS011;47555;51.038;6.280;2022-10-23T15:53:37;7.13;;;3.42;;
25153;SDS011;47555;51.038;6.280;2022-10-23T15:56:02;3.92;;;2.60;;
25153;SDS011;47555;51.038;6.280;2022-10-23T15:58:28;8.02;;;2.97;;
25153;SDS011;47555;51.038;6.280;2022-10-23T16:00:54;10.25;;;3.80;;
25153;SDS011;47555;51.038;6.280;2022-10-23T16:03:19;8.25;;;3.28;;
25153;SDS011;47555;51.038;6.280;2022-10-23T16:05:45;8.30;;;3.83;;
25153;SDS011;47555;51.038;6.280;2022-10-23T16:08:10;8.52;;;4.30;;
25153;SDS011;47555;51.038;6.280;2022-10-23T16:10:40;5.93;;;3.35;;
25153;SDS011;47555;51.038;6.280;2022-10-23T16:13:06;6.32;;;3.30;;
25153;SDS011;47555;51.038;6.280;2022-10-23T16:15:35;12.63;;;3.70;;
25153;SDS011;47555;51.038;6.280;2022-10-23T16:18:01;6.53;;;2.80;;
25153;SDS011;47555;51.038;6.280;2022-10-23T16:20:27;5.90;;;2.95;;
25153;SDS011;47555;51.038;6.280;2022-10-23T16:22:53;6.25;;;3.35;;
25153;SDS011;47555;51.038;6.280;2022-10-23T16:25:19;7.05;;;3.08;;
25153;SDS011;47555;51.038;6.280;2022-10-23T16:27:44;8.02;;;3.22;;
25153;SDS011;47555;51.038;6.280;2022-10-23T16:30:10;7.70;;;3.90;;
25153;SDS011;47555;51.038;6.280;2022-10-23T16:32:38;8.60;;;3.08;;
25153;SDS011;47555;51.038;6.280;2022-10-23T16:35:07;7.80;;;3.88;;
25153;SDS011;47555;51.038;6.280;2022-10-23T16:37:33;9.13;;;3.55;;
25153;SDS011;47555;51.038;6.280;2022-10-23T16:39:58;8.30;;;3.75;;
25153;SDS011;47555;51.038;6.280;2022-10-23T16:42:25;8.13;;;3.55;;
25153;SDS011;47555;51.038;6.280;2022-10-23T16:44:51;9.25;;;3.40;;
25153;SDS011;47555;51.038;6.280;2022-10-23T16:47:17;12.45;;;4.13;;
25153;SDS011;47555;51.038;6.280;2022-10-23T16:49:42;8.63;;;3.78;;
25153;SDS011;47555;51.038;6.280;2022-10-23T16:52:08;7.38;;;3.70;;
25153;SDS011;47555;51.038;6.280;2022-10-23T16:54:34;12.57;;;4.78;;